Bethlehem, North Carolina
Current Conditions -  °F | °C
As of 7:53 PM on Tuesday 27 Jan 2015 (Local Time) from KHKY Reporting Station
Clear Clear  
Wind Chill: 29°   Ceiling: Unl
Heat Index: 33°   Visibility: 10mi
Dew Point: 19°   Wind: 5mph
Humidity: 56%   Direction: NA
Pressure: 29.96"   Gusts: NA
Location:  35.7628°N, 81.3219°W
Report Text: KHKY 280053Z VRB04KT 10SM CLR 01/M07 A2996 RMK AO2 SLP142 T00061072
Loading
Personal Weather Stations






























Interactive Weather Map New forecast layout! Learn more

10-Day Weather Forecast

Advertisements
Track Severe Weather on mobile